createdAt,value
2022-10-04T00:00:37.188Z,5.53
2022-10-04T00:03:13.804Z,4.73
2022-10-04T00:05:41.996Z,4.67
2022-10-04T00:08:43.657Z,4.23
2022-10-04T00:11:31.013Z,4.60
2022-10-04T00:14:09.146Z,4.77
2022-10-04T00:16:41.962Z,4.23
2022-10-04T00:19:15.128Z,4.30
2022-10-04T00:21:55.767Z,4.80
2022-10-04T00:24:33.021Z,5.20
2022-10-04T00:27:21.745Z,4.83
2022-10-04T00:30:03.817Z,6.07
2022-10-04T00:32:40.751Z,5.00
2022-10-04T00:35:25.780Z,5.53
2022-10-04T00:38:15.047Z,6.47
2022-10-04T00:41:06.731Z,5.80
2022-10-04T00:43:43.300Z,6.90
2022-10-04T00:46:25.890Z,6.87
2022-10-04T00:49:01.431Z,6.13
2022-10-04T00:51:56.940Z,5.83
2022-10-04T00:54:38.862Z,6.70
2022-10-04T00:57:13.508Z,6.07
2022-10-04T01:00:14.723Z,5.67
2022-10-04T01:03:06.901Z,5.73
2022-10-04T01:05:40.825Z,5.47
2022-10-04T01:08:15.117Z,4.50
2022-10-04T01:11:19.981Z,5.23
2022-10-04T01:14:09.292Z,5.43
2022-10-04T01:16:38.017Z,5.47
2022-10-04T01:19:23.471Z,5.10
2022-10-04T01:22:05.430Z,4.80
2022-10-04T01:24:39.126Z,4.90
2022-10-04T01:27:41.641Z,5.33
2022-10-04T01:30:16.426Z,5.27
2022-10-04T01:32:45.529Z,4.80
2022-10-04T01:35:15.217Z,4.90
2022-10-04T01:37:42.294Z,5.10
2022-10-04T01:40:10.989Z,4.90
2022-10-04T01:42:52.486Z,4.70
2022-10-04T01:45:42.931Z,5.07
2022-10-04T01:48:19.420Z,5.13
2022-10-04T01:51:03.338Z,5.33
2022-10-04T01:53:37.301Z,4.30
2022-10-04T01:56:35.798Z,5.03
2022-10-04T01:59:06.987Z,4.97
2022-10-04T02:02:06.740Z,5.27
2022-10-04T02:04:39.787Z,6.03
2022-10-04T02:07:14.521Z,5.20
2022-10-04T02:09:45.453Z,5.17
2022-10-04T02:12:18.790Z,4.90
2022-10-04T02:14:53.375Z,5.67
2022-10-04T02:17:29.500Z,4.70
2022-10-04T02:19:58.243Z,6.10
2022-10-04T02:22:26.731Z,5.47
2022-10-04T02:24:56.757Z,5.30
2022-10-04T02:27:30.144Z,5.40
2022-10-04T02:30:07.846Z,5.17
2022-10-04T02:32:54.409Z,6.43
2022-10-04T02:35:22.258Z,5.80
2022-10-04T02:37:59.272Z,6.13
2022-10-04T02:40:36.969Z,5.63
2022-10-04T02:43:27.062Z,5.07
2022-10-04T02:46:07.837Z,6.07
2022-10-04T02:48:53.698Z,6.30
2022-10-04T02:51:33.628Z,6.47
2022-10-04T02:54:14.707Z,5.60
2022-10-04T02:56:42.881Z,6.00
2022-10-04T02:59:16.964Z,5.60
2022-10-04T03:01:56.205Z,5.33
2022-10-04T03:04:32.670Z,5.33
2022-10-04T03:07:05.562Z,5.37
2022-10-04T03:09:35.537Z,5.50
2022-10-04T03:12:04.542Z,6.23
2022-10-04T03:14:32.811Z,5.40
2022-10-04T03:17:04.280Z,5.90
2022-10-04T03:19:33.941Z,6.37
2022-10-04T03:22:10.805Z,8.37
2022-10-04T03:24:49.320Z,6.23
2022-10-04T03:27:23.317Z,6.40
2022-10-04T03:29:50.749Z,8.00
2022-10-04T03:32:20.671Z,6.70
2022-10-04T03:35:07.754Z,6.50
2022-10-04T03:37:38.096Z,7.40
2022-10-04T03:40:10.319Z,7.00
2022-10-04T03:42:39.473Z,6.90
2022-10-04T03:45:17.768Z,7.73
2022-10-04T03:47:48.806Z,7.10
2022-10-04T03:50:29.329Z,8.00
2022-10-04T03:53:04.582Z,9.00
2022-10-04T03:55:43.577Z,8.10
2022-10-04T03:58:17.320Z,7.63
2022-10-04T04:01:02.226Z,8.80
2022-10-04T04:03:35.371Z,7.90
2022-10-04T04:06:14.440Z,8.00
2022-10-04T04:08:44.999Z,7.60
2022-10-04T04:11:23.856Z,8.50
2022-10-04T04:14:08.397Z,7.73
2022-10-04T04:16:37.793Z,7.87
2022-10-04T04:19:14.124Z,7.80
2022-10-04T04:21:42.358Z,8.40
2022-10-04T04:24:36.708Z,8.03
2022-10-04T04:27:05.514Z,7.70
2022-10-04T04:29:53.426Z,7.30
2022-10-04T04:32:36.235Z,7.77
2022-10-04T04:35:08.717Z,6.50
2022-10-04T04:37:37.984Z,6.83
2022-10-04T04:40:25.520Z,7.00
2022-10-04T04:42:53.262Z,8.57
2022-10-04T04:45:26.005Z,7.13
2022-10-04T04:47:57.619Z,6.90
2022-10-04T04:50:25.763Z,6.70
2022-10-04T04:53:00.354Z,7.23
2022-10-04T04:55:49.983Z,7.00
2022-10-04T04:58:27.531Z,6.90
2022-10-04T05:01:24.542Z,7.47
2022-10-04T05:04:12.762Z,6.00
2022-10-04T05:06:46.976Z,7.80
2022-10-04T05:09:36.074Z,6.73
2022-10-04T05:12:13.924Z,7.30
2022-10-04T05:14:48.162Z,7.17
2022-10-04T05:17:35.381Z,7.13
2022-10-04T05:20:04.397Z,7.70
2022-10-04T05:22:32.769Z,8.93
2022-10-04T05:25:08.696Z,9.50
2022-10-04T05:27:45.438Z,8.50
2022-10-04T05:30:43.119Z,8.37
2022-10-04T05:33:25.318Z,8.90
2022-10-04T05:36:10.583Z,9.90
2022-10-04T05:38:40.018Z,10.07
2022-10-04T05:41:16.883Z,10.20
2022-10-04T05:43:53.273Z,9.50
2022-10-04T05:46:35.663Z,10.17
2022-10-04T05:49:18.198Z,10.40
2022-10-04T05:51:49.595Z,11.50
2022-10-04T05:54:23.287Z,11.13
2022-10-04T05:57:19.759Z,12.20
2022-10-04T06:00:00.506Z,15.00
2022-10-04T06:03:06.904Z,11.30
2022-10-04T06:05:56.077Z,12.13
2022-10-04T06:08:47.457Z,12.80
2022-10-04T06:11:32.296Z,12.37
2022-10-04T06:14:14.328Z,13.10
2022-10-04T06:16:53.565Z,12.93
2022-10-04T06:19:45.057Z,12.80
2022-10-04T06:22:17.582Z,12.17
2022-10-04T06:25:14.488Z,11.10
2022-10-04T06:27:54.203Z,12.70
2022-10-04T06:30:21.712Z,11.20
2022-10-04T06:33:14.108Z,10.40
2022-10-04T06:35:52.681Z,10.37
2022-10-04T06:38:46.320Z,9.83
2022-10-04T06:41:37.467Z,10.40
2022-10-04T06:44:37.012Z,11.30
2022-10-04T06:47:48.257Z,10.67
2022-10-04T06:50:47.444Z,10.13
2022-10-04T06:53:23.784Z,10.13
2022-10-04T06:56:15.217Z,10.63
2022-10-04T06:59:33.034Z,11.90
2022-10-04T07:02:25.876Z,9.20
2022-10-04T07:05:30.572Z,9.40
2022-10-04T07:08:39.550Z,10.10
2022-10-04T07:11:18.229Z,9.27
2022-10-04T07:13:57.942Z,8.13
2022-10-04T07:16:51.485Z,9.87
2022-10-04T07:19:22.413Z,9.30
2022-10-04T07:22:07.274Z,9.50
2022-10-04T07:24:47.452Z,9.40
2022-10-04T07:27:22.323Z,8.00
2022-10-04T07:29:56.897Z,7.40
2022-10-04T07:32:30.736Z,6.97
2022-10-04T07:35:26.912Z,8.00
2022-10-04T07:38:18.648Z,7.20
2022-10-04T07:41:18.687Z,6.67
2022-10-04T07:43:56.433Z,7.47
2022-10-04T07:47:09.639Z,7.83
2022-10-04T07:49:40.965Z,6.80
2022-10-04T07:52:36.393Z,7.53
2022-10-04T07:55:26.017Z,6.10
2022-10-04T07:58:07.452Z,7.40
2022-10-04T08:00:39.702Z,5.30
2022-10-04T08:03:12.793Z,5.80
2022-10-04T08:05:43.502Z,5.60
2022-10-04T08:08:31.522Z,4.50
2022-10-04T08:11:25.070Z,5.53
2022-10-04T08:14:10.392Z,5.70
2022-10-04T08:16:55.532Z,5.37
2022-10-04T08:19:41.042Z,4.87
2022-10-04T08:22:33.457Z,4.00
2022-10-04T08:25:15.310Z,4.50
2022-10-04T08:28:53.930Z,4.90
2022-10-04T08:31:39.527Z,3.60
2022-10-04T08:34:53.297Z,4.83
2022-10-04T08:37:57.939Z,4.37
2022-10-04T08:41:02.044Z,3.73
2022-10-04T08:44:00.124Z,3.73
2022-10-04T08:46:47.093Z,4.47
2022-10-04T08:50:06.490Z,5.00
2022-10-04T08:53:29.682Z,4.07
2022-10-04T08:56:14.657Z,4.67
2022-10-04T08:59:27.494Z,4.00
2022-10-04T09:02:32.114Z,3.70
2022-10-04T09:05:50.039Z,4.03
2022-10-04T09:09:13.577Z,4.13
2022-10-04T09:12:07.843Z,4.10
2022-10-04T09:15:09.175Z,4.47
2022-10-04T09:17:41.864Z,3.63
2022-10-04T09:20:39.106Z,3.90
2022-10-04T09:24:09.777Z,4.10
2022-10-04T09:26:56.780Z,3.43
2022-10-04T09:29:57.379Z,4.03
2022-10-04T09:33:01.050Z,3.37
2022-10-04T09:36:26.217Z,3.40
2022-10-04T09:39:29.997Z,4.03
2022-10-04T09:42:31.132Z,3.40
2022-10-04T09:45:31.764Z,3.17
2022-10-04T09:48:37.344Z,3.10
2022-10-04T09:51:49.377Z,3.37
2022-10-04T09:54:58.137Z,2.57
2022-10-04T09:58:05.881Z,3.73
2022-10-04T10:00:47.844Z,3.10
2022-10-04T10:04:05.177Z,4.10
2022-10-04T10:06:44.569Z,2.90
2022-10-04T10:10:05.569Z,2.63
2022-10-04T10:13:22.226Z,2.50
2022-10-04T10:16:10.580Z,1.93
2022-10-04T10:18:44.035Z,2.10
2022-10-04T10:21:36.807Z,1.97
2022-10-04T10:24:35.029Z,1.53
2022-10-04T10:27:32.292Z,1.47
2022-10-04T10:30:12.714Z,1.70
2022-10-04T10:33:11.640Z,1.50
2022-10-04T10:36:22.568Z,1.63
2022-10-04T10:39:26.222Z,1.50
2022-10-04T10:42:18.578Z,2.20
2022-10-04T10:45:19.908Z,1.60
2022-10-04T10:48:36.122Z,1.67
2022-10-04T10:52:06.335Z,1.43
2022-10-04T10:54:51.611Z,1.50
2022-10-04T10:57:46.871Z,1.30
2022-10-04T11:00:24.725Z,1.60
2022-10-04T11:03:27.274Z,1.50
2022-10-04T11:06:38.441Z,1.40
2022-10-04T11:09:48.337Z,2.20
2022-10-04T11:12:33.754Z,1.63
2022-10-04T11:16:02.220Z,1.60
2022-10-04T11:19:38.731Z,1.60
2022-10-04T11:23:08.914Z,1.03
2022-10-04T11:26:15.938Z,1.23
2022-10-04T11:29:33.682Z,1.53
2022-10-04T11:32:00.564Z,1.30
2022-10-04T11:35:03.869Z,1.20
2022-10-04T11:38:27.627Z,1.00
2022-10-04T11:41:01.510Z,1.23
2022-10-04T11:43:46.793Z,1.10
2022-10-04T11:46:50.788Z,1.00
2022-10-04T11:49:39.381Z,1.20
2022-10-04T11:53:10.822Z,1.37
2022-10-04T11:56:08.857Z,1.30
2022-10-04T11:59:18.283Z,1.17
2022-10-04T12:02:16.475Z,1.00
2022-10-04T12:05:01.545Z,1.30
2022-10-04T12:07:46.592Z,1.50
2022-10-04T12:10:30.208Z,1.43
2022-10-04T12:13:12.009Z,1.20
2022-10-04T12:15:55.880Z,1.10
2022-10-04T12:19:20.108Z,1.17
2022-10-04T12:21:59.573Z,0.90
2022-10-04T12:24:40.377Z,1.93
2022-10-04T12:27:42.262Z,1.60
2022-10-04T12:30:46.936Z,1.30
2022-10-04T12:33:23.836Z,0.90
2022-10-04T12:36:22.540Z,1.10
2022-10-04T12:39:29.822Z,1.10
2022-10-04T12:42:25.319Z,1.10
2022-10-04T12:45:57.274Z,1.10
2022-10-04T12:49:01.368Z,0.90
2022-10-04T12:51:28.323Z,0.90
2022-10-04T12:54:28.982Z,0.77
2022-10-04T12:57:46.111Z,0.80
2022-10-04T13:00:27.574Z,0.80
2022-10-04T13:03:19.167Z,1.00
2022-10-04T13:06:07.497Z,0.80
2022-10-04T13:09:17.025Z,1.00
2022-10-04T13:12:14.742Z,0.97
2022-10-04T13:14:56.537Z,1.20
2022-10-04T13:17:38.407Z,1.00
2022-10-04T13:21:01.388Z,0.90
2022-10-04T13:23:45.562Z,0.87
2022-10-04T13:26:57.542Z,0.90
2022-10-04T13:29:44.037Z,0.73
2022-10-04T13:32:27.378Z,0.87
2022-10-04T13:35:41.375Z,0.93
2022-10-04T13:38:37.368Z,1.00
2022-10-04T13:41:48.689Z,0.90
2022-10-04T13:44:55.968Z,0.70
2022-10-04T13:47:54.677Z,0.80
2022-10-04T13:50:52.979Z,0.80
2022-10-04T13:54:14.257Z,0.93
2022-10-04T13:56:54.362Z,0.80
2022-10-04T13:59:46.898Z,0.70
2022-10-04T14:02:54.600Z,1.07
2022-10-04T14:05:42.966Z,1.27
2022-10-04T14:08:36.821Z,0.90
2022-10-04T14:11:49.973Z,1.00
2022-10-04T14:14:43.806Z,0.80
2022-10-04T14:17:28.482Z,0.90
2022-10-04T14:20:42.758Z,0.80
2022-10-04T14:23:29.259Z,1.10
2022-10-04T14:26:14.425Z,1.10
2022-10-04T14:29:36.403Z,1.40
2022-10-04T14:32:24.680Z,1.00
2022-10-04T14:35:24.164Z,1.73
2022-10-04T14:38:09.259Z,1.00
2022-10-04T14:41:11.531Z,1.30
2022-10-04T14:44:15.540Z,0.90
2022-10-04T14:47:16.252Z,0.77
2022-10-04T14:50:19.853Z,0.97
2022-10-04T14:53:10.443Z,1.00
2022-10-04T14:56:13.123Z,1.07
2022-10-04T14:59:17.848Z,0.80
2022-10-04T15:02:11.397Z,1.00
2022-10-04T15:05:44.960Z,1.03
2022-10-04T15:08:21.303Z,1.43
2022-10-04T15:11:14.021Z,0.93
2022-10-04T15:13:56.067Z,0.97
2022-10-04T15:16:53.217Z,1.00
2022-10-04T15:19:26.128Z,0.73
2022-10-04T15:21:55.652Z,1.10
2022-10-04T15:24:28.662Z,1.03
2022-10-04T15:27:33.302Z,1.13
2022-10-04T15:30:21.540Z,1.10
2022-10-04T15:33:19.009Z,1.10
2022-10-04T15:35:58.215Z,1.05
2022-10-04T15:38:55.478Z,1.20
2022-10-04T15:41:57.690Z,1.10
2022-10-04T15:44:42.429Z,0.97
2022-10-04T15:47:22.652Z,1.23
2022-10-04T15:50:33.938Z,1.23
2022-10-04T15:53:23.694Z,1.20
2022-10-04T15:56:14.096Z,1.27
2022-10-04T15:58:53.004Z,1.33
2022-10-04T16:01:49.676Z,1.40
2022-10-04T16:04:43.545Z,1.23
2022-10-04T16:07:48.132Z,1.00
2022-10-04T16:10:56.251Z,1.20
2022-10-04T16:13:57.396Z,1.00
2022-10-04T16:16:39.996Z,1.00
2022-10-04T16:19:34.183Z,1.50
2022-10-04T16:22:35.373Z,1.43
2022-10-04T16:25:24.036Z,1.33
2022-10-04T16:28:08.852Z,1.10
2022-10-04T16:31:22.260Z,1.20
2022-10-04T16:34:29.044Z,1.13
2022-10-04T16:37:35.912Z,2.60
2022-10-04T16:40:51.641Z,8.33
2022-10-04T16:43:18.579Z,6.30
2022-10-04T16:46:03.592Z,7.03
2022-10-04T16:48:38.659Z,8.00
2022-10-04T16:51:05.797Z,9.97
2022-10-04T16:54:03.721Z,11.10
2022-10-04T16:57:01.054Z,10.60
2022-10-04T16:59:41.632Z,8.67
2022-10-04T17:02:39.207Z,5.20
2022-10-04T17:05:41.283Z,5.20
2022-10-04T17:08:16.006Z,4.00
2022-10-04T17:10:48.732Z,2.70
2022-10-04T17:13:29.672Z,2.83
2022-10-04T17:16:18.897Z,3.03
2022-10-04T17:18:55.902Z,2.30
2022-10-04T17:21:48.564Z,2.93
2022-10-04T17:24:47.264Z,2.80
2022-10-04T17:27:39.561Z,3.43
2022-10-04T17:30:16.638Z,4.30
2022-10-04T17:33:08.210Z,3.03
2022-10-04T17:36:02.517Z,3.40
2022-10-04T17:38:44.869Z,3.97
2022-10-04T17:41:40.569Z,3.40
2022-10-04T17:44:46.432Z,6.83
2022-10-04T17:47:54.418Z,5.20
2022-10-04T17:51:15.057Z,6.77
2022-10-04T17:54:11.079Z,7.97
2022-10-04T17:56:51.283Z,7.83
2022-10-04T17:59:30.689Z,8.77
2022-10-04T18:02:49.021Z,5.83
2022-10-04T18:05:44.838Z,7.20
2022-10-04T18:08:46.968Z,5.77
2022-10-04T18:11:37.360Z,5.97
2022-10-04T18:14:31.057Z,5.90
2022-10-04T18:17:04.864Z,5.30
2022-10-04T18:20:02.268Z,5.47
2022-10-04T18:22:47.368Z,6.73
2022-10-04T18:25:27.060Z,4.70
2022-10-04T18:28:06.756Z,4.83
2022-10-04T18:30:49.207Z,5.70
2022-10-04T18:33:23.704Z,6.93
2022-10-04T18:36:01.376Z,6.90
2022-10-04T18:38:29.842Z,6.90
2022-10-04T18:41:05.421Z,14.00
2022-10-04T18:43:36.363Z,12.90
2022-10-04T18:46:16.139Z,11.73
2022-10-04T18:49:18.178Z,6.20
2022-10-04T18:51:59.921Z,5.97
2022-10-04T18:54:57.771Z,7.00
2022-10-04T18:57:56.594Z,8.30
2022-10-04T19:00:43.191Z,8.50
2022-10-04T19:03:28.314Z,7.30
2022-10-04T19:06:03.606Z,7.70
2022-10-04T19:09:04.317Z,7.93
2022-10-04T19:11:55.777Z,7.30
2022-10-04T19:14:47.250Z,6.87
2022-10-04T19:18:09.121Z,6.60
2022-10-04T19:21:02.185Z,5.90
2022-10-04T19:23:45.904Z,8.27
2022-10-04T19:26:32.787Z,11.30
2022-10-04T19:29:48.024Z,9.33
2022-10-04T19:33:00.275Z,6.70
2022-10-04T19:35:50.015Z,6.20
2022-10-04T19:38:47.308Z,5.83
2022-10-04T19:41:29.647Z,6.20
2022-10-04T19:44:18.038Z,5.30
2022-10-04T19:47:02.802Z,5.90
2022-10-04T19:49:47.837Z,5.93
2022-10-04T19:52:28.193Z,7.70
2022-10-04T19:55:20.822Z,6.57
2022-10-04T19:58:02.286Z,5.90
2022-10-04T20:00:29.457Z,5.40
2022-10-04T20:02:57.292Z,6.80
2022-10-04T20:05:30.261Z,8.33
2022-10-04T20:08:05.902Z,6.80
2022-10-04T20:10:36.331Z,6.50
2022-10-04T20:13:22.004Z,7.33
2022-10-04T20:16:00.016Z,7.23
2022-10-04T20:18:33.732Z,8.80
2022-10-04T20:21:01.685Z,8.27
2022-10-04T20:23:40.995Z,9.60
2022-10-04T20:26:53.243Z,9.13
2022-10-04T20:29:51.950Z,8.37
2022-10-04T20:32:46.316Z,8.43
2022-10-04T20:36:00.148Z,8.13
2022-10-04T20:38:48.410Z,8.03
2022-10-04T20:41:53.871Z,7.40
2022-10-04T20:44:41.558Z,8.00
2022-10-04T20:47:39.469Z,7.80
2022-10-04T20:50:27.108Z,7.47
2022-10-04T20:53:01.423Z,6.97
2022-10-04T20:55:35.450Z,6.70
2022-10-04T20:58:21.862Z,7.00
2022-10-04T21:00:57.816Z,7.60
2022-10-04T21:03:24.969Z,7.30
2022-10-04T21:06:04.538Z,7.10
2022-10-04T21:08:31.631Z,7.80
2022-10-04T21:11:22.303Z,7.37
2022-10-04T21:13:49.228Z,6.17
2022-10-04T21:16:41.305Z,6.37
2022-10-04T21:19:33.185Z,6.67
2022-10-04T21:22:05.623Z,6.20
2022-10-04T21:24:52.877Z,6.23
2022-10-04T21:27:28.807Z,6.57
2022-10-04T21:29:57.523Z,5.70
2022-10-04T21:32:26.576Z,5.43
2022-10-04T21:34:54.545Z,5.60
2022-10-04T21:37:22.423Z,6.93
2022-10-04T21:39:49.328Z,6.63
2022-10-04T21:42:17.353Z,7.73
2022-10-04T21:44:44.745Z,7.23
2022-10-04T21:47:12.097Z,7.30
2022-10-04T21:49:39.437Z,6.47
2022-10-04T21:52:06.998Z,6.60
2022-10-04T21:54:34.714Z,5.87
2022-10-04T21:57:02.087Z,6.50
2022-10-04T21:59:29.123Z,6.07
2022-10-04T22:01:56.195Z,5.83
2022-10-04T22:04:23.223Z,6.87
2022-10-04T22:06:50.302Z,6.90
2022-10-04T22:09:17.290Z,6.27
2022-10-04T22:11:44.359Z,6.30
2022-10-04T22:14:11.192Z,5.77
2022-10-04T22:16:38.157Z,6.07
2022-10-04T22:19:05.462Z,6.30
2022-10-04T22:21:32.583Z,6.90
2022-10-04T22:23:59.933Z,5.80
2022-10-04T22:26:27.710Z,5.57
2022-10-04T22:28:56.518Z,7.40
2022-10-04T22:31:29.421Z,6.53
2022-10-04T22:33:56.958Z,6.37
2022-10-04T22:36:38.450Z,7.17
2022-10-04T22:39:16.293Z,6.47
2022-10-04T22:41:58.467Z,6.63
2022-10-04T22:44:39.044Z,7.17
2022-10-04T22:47:13.702Z,6.47
2022-10-04T22:49:45.212Z,7.27
2022-10-04T22:52:24.368Z,8.20
2022-10-04T22:54:54.100Z,7.60
2022-10-04T22:57:21.466Z,9.60
2022-10-04T22:59:51.439Z,12.07
2022-10-04T23:02:28.811Z,10.30
2022-10-04T23:05:13.633Z,12.20
2022-10-04T23:07:41.977Z,12.37
2022-10-04T23:10:10.434Z,13.37
2022-10-04T23:12:39.977Z,15.10
2022-10-04T23:15:08.191Z,11.47
2022-10-04T23:17:39.375Z,12.47
2022-10-04T23:20:09.203Z,11.20
2022-10-04T23:22:36.205Z,9.90
2022-10-04T23:25:13.924Z,10.00
2022-10-04T23:27:41.387Z,9.17
2022-10-04T23:30:17.304Z,9.33
2022-10-04T23:32:47.618Z,9.47
2022-10-04T23:35:29.979Z,9.13
2022-10-04T23:37:57.057Z,9.17
2022-10-04T23:40:26.143Z,9.07
2022-10-04T23:42:56.766Z,8.67
2022-10-04T23:45:26.194Z,8.50
2022-10-04T23:47:59.374Z,8.50
2022-10-04T23:50:32.407Z,8.80
2022-10-04T23:53:04.787Z,9.90
2022-10-04T23:55:39.294Z,8.60
2022-10-04T23:58:16.038Z,8.63
